Aviation Digital Data Service (ADDS)

Output produced by METARs form (1707 UTC 21 September 2019)
found at http://aviationweather.gov/metar/data/
 
KMCB 211120Z 2112/2212 00000KT P6SM FEW250 
     FM211400 09005KT P6SM FEW035 FEW250 
     FM211900 11006KT P6SM FEW050 SCT110 
     FM212300 VRB03KT P6SM FEW030 SCT080 
     FM220400 00000KT P6SM SKC